createdAt,value
2023-03-06T00:01:11.373Z,11.58
2023-03-06T00:03:42.699Z,11.58
2023-03-06T00:06:11.315Z,11.58
2023-03-06T00:08:39.791Z,11.58
2023-03-06T00:11:08.123Z,11.56
2023-03-06T00:13:36.529Z,11.56
2023-03-06T00:16:06.936Z,11.55
2023-03-06T00:18:36.058Z,11.54
2023-03-06T00:21:09.978Z,11.53
2023-03-06T00:23:39.208Z,11.52
2023-03-06T00:26:08.575Z,11.52
2023-03-06T00:28:37.765Z,11.50
2023-03-06T00:31:06.649Z,11.49
2023-03-06T00:33:36.585Z,11.47
2023-03-06T00:36:06.497Z,11.46
2023-03-06T00:38:37.250Z,11.46
2023-03-06T00:41:10.536Z,11.45
2023-03-06T00:43:39.004Z,11.45
2023-03-06T00:46:09.496Z,11.45
2023-03-06T00:48:37.897Z,11.44
2023-03-06T00:51:07.170Z,11.45
2023-03-06T00:53:37.366Z,11.46
2023-03-06T00:56:09.076Z,11.45
2023-03-06T00:58:38.269Z,11.45
2023-03-06T01:01:07.245Z,11.44
2023-03-06T01:03:35.655Z,11.42
2023-03-06T01:06:04.256Z,11.42
2023-03-06T01:08:33.844Z,11.42
2023-03-06T01:11:03.816Z,11.42
2023-03-06T01:13:32.363Z,11.42
2023-03-06T01:16:08.652Z,11.43
2023-03-06T01:18:37.733Z,11.42
2023-03-06T01:21:07.238Z,11.42
2023-03-06T01:23:36.900Z,11.39
2023-03-06T01:26:07.615Z,11.40
2023-03-06T01:28:37.422Z,11.41
2023-03-06T01:31:06.529Z,11.38
2023-03-06T01:33:35.948Z,11.39
2023-03-06T01:36:06.928Z,11.39
2023-03-06T01:38:36.085Z,11.37
2023-03-06T01:41:06.696Z,11.35
2023-03-06T01:43:37.445Z,11.32
2023-03-06T01:46:38.746Z,11.30
2023-03-06T01:49:14.006Z,11.28
2023-03-06T01:51:49.712Z,11.27
2023-03-06T01:54:23.997Z,11.25
2023-03-06T01:56:58.383Z,11.24
2023-03-06T01:59:27.666Z,11.23
2023-03-06T02:01:57.348Z,11.23
2023-03-06T02:04:26.326Z,11.25
2023-03-06T02:06:55.357Z,11.26
2023-03-06T02:09:23.960Z,11.27
2023-03-06T02:11:57.098Z,11.29
2023-03-06T02:14:25.753Z,11.29
2023-03-06T02:16:54.200Z,11.29
2023-03-06T02:19:38.210Z,11.31
2023-03-06T02:22:07.168Z,11.32
2023-03-06T02:24:40.653Z,11.33
2023-03-06T02:27:14.265Z,11.32
2023-03-06T02:29:45.460Z,11.33
2023-03-06T02:32:14.020Z,11.30
2023-03-06T02:34:57.790Z,11.30
2023-03-06T02:37:28.842Z,11.29
2023-03-06T02:40:13.368Z,11.29
2023-03-06T02:42:49.647Z,11.29
2023-03-06T02:45:24.487Z,11.29
2023-03-06T02:47:52.803Z,11.29
2023-03-06T02:50:21.443Z,11.31
2023-03-06T02:52:49.888Z,11.28
2023-03-06T02:55:18.489Z,11.30
2023-03-06T02:57:48.275Z,11.31
2023-03-06T03:00:19.065Z,11.30
2023-03-06T03:02:47.651Z,11.29
2023-03-06T03:05:16.371Z,11.26
2023-03-06T03:07:48.355Z,11.25
2023-03-06T03:10:17.913Z,11.24
2023-03-06T03:12:48.786Z,11.22
2023-03-06T03:15:18.210Z,11.20
2023-03-06T03:17:46.598Z,11.19
2023-03-06T03:20:18.800Z,11.18
2023-03-06T03:22:49.675Z,11.16
2023-03-06T03:25:19.035Z,11.16
2023-03-06T03:27:49.123Z,11.15
2023-03-06T03:30:18.290Z,11.12
2023-03-06T03:32:47.016Z,11.11
2023-03-06T03:35:15.384Z,11.10
2023-03-06T03:37:43.786Z,11.09
2023-03-06T03:40:13.856Z,11.10
2023-03-06T03:42:42.379Z,11.08
2023-03-06T03:45:13.628Z,11.10
2023-03-06T03:47:42.722Z,11.08
2023-03-06T03:50:13.044Z,11.08
2023-03-06T03:52:41.740Z,11.08
2023-03-06T03:55:11.337Z,11.10
2023-03-06T03:57:43.077Z,11.12
2023-03-06T04:00:16.711Z,11.11
2023-03-06T04:02:54.573Z,11.07
2023-03-06T04:05:29.913Z,11.05
2023-03-06T04:07:59.229Z,11.04
2023-03-06T04:10:27.723Z,11.05
2023-03-06T04:12:56.278Z,11.03
2023-03-06T04:15:26.260Z,11.03
2023-03-06T04:17:54.937Z,11.04
2023-03-06T04:20:30.614Z,11.05
2023-03-06T04:23:01.411Z,11.03
2023-03-06T04:25:30.552Z,11.03
2023-03-06T04:28:01.308Z,11.02
2023-03-06T04:30:32.731Z,11.03
2023-03-06T04:33:01.379Z,11.00
2023-03-06T04:35:30.301Z,10.99
2023-03-06T04:38:03.734Z,10.97
2023-03-06T04:40:35.131Z,10.98
2023-03-06T04:43:05.867Z,10.96
2023-03-06T04:45:36.168Z,10.94
2023-03-06T04:48:05.458Z,10.91
2023-03-06T04:50:33.897Z,10.88
2023-03-06T04:53:04.716Z,10.85
2023-03-06T04:55:33.310Z,10.82
2023-03-06T04:58:01.920Z,10.81
2023-03-06T05:00:31.756Z,10.83
2023-03-06T05:03:02.920Z,10.83
2023-03-06T05:05:31.888Z,10.83
2023-03-06T05:08:00.150Z,10.84
2023-03-06T05:10:29.196Z,10.83
2023-03-06T05:12:58.050Z,10.83
2023-03-06T05:15:26.705Z,10.82
2023-03-06T05:17:56.487Z,10.81
2023-03-06T05:20:26.435Z,10.81
2023-03-06T05:22:54.954Z,10.82
2023-03-06T05:25:23.355Z,10.83
2023-03-06T05:27:51.745Z,10.82
2023-03-06T05:30:22.483Z,10.82
2023-03-06T05:32:51.325Z,10.82
2023-03-06T05:35:22.510Z,10.81
2023-03-06T05:37:52.799Z,10.79
2023-03-06T05:40:21.722Z,10.76
2023-03-06T05:42:50.355Z,10.77
2023-03-06T05:45:19.122Z,10.77
2023-03-06T05:47:47.481Z,10.79
2023-03-06T05:50:15.902Z,10.81
2023-03-06T05:52:44.452Z,10.83
2023-03-06T05:55:15.555Z,10.85
2023-03-06T05:57:44.080Z,10.86
2023-03-06T06:00:15.495Z,10.88
2023-03-06T06:02:46.312Z,10.89
2023-03-06T06:05:15.393Z,10.90
2023-03-06T06:07:44.344Z,10.92
2023-03-06T06:10:15.378Z,10.92
2023-03-06T06:12:43.791Z,10.93
2023-03-06T06:15:12.274Z,10.93
2023-03-06T06:17:40.903Z,10.91
2023-03-06T06:20:11.236Z,10.90
2023-03-06T06:22:39.612Z,10.91
2023-03-06T06:25:09.350Z,10.90
2023-03-06T06:27:39.098Z,10.90
2023-03-06T06:30:11.640Z,10.91
2023-03-06T06:32:40.278Z,10.92
2023-03-06T06:35:09.428Z,10.91
2023-03-06T06:37:37.882Z,10.90
2023-03-06T06:40:08.161Z,10.91
2023-03-06T06:42:40.132Z,10.90
2023-03-06T06:45:11.241Z,10.91
2023-03-06T06:47:41.523Z,10.91
2023-03-06T06:50:13.584Z,10.92
2023-03-06T06:52:42.086Z,10.90
2023-03-06T06:55:12.013Z,10.89
2023-03-06T06:57:42.623Z,10.89
2023-03-06T07:00:15.811Z,10.87
2023-03-06T07:02:44.437Z,10.85
2023-03-06T07:05:13.189Z,10.85
2023-03-06T07:07:41.710Z,10.84
2023-03-06T07:10:15.597Z,10.83
2023-03-06T07:12:45.604Z,10.83
2023-03-06T07:15:17.800Z,10.84
2023-03-06T07:17:48.268Z,10.84
2023-03-06T07:20:19.365Z,10.84
2023-03-06T07:22:51.179Z,10.81
2023-03-06T07:25:22.820Z,10.80
2023-03-06T07:27:55.143Z,10.78
2023-03-06T07:30:24.760Z,10.78
2023-03-06T07:32:57.636Z,10.79
2023-03-06T07:35:26.957Z,10.77
2023-03-06T07:37:55.774Z,10.80
2023-03-06T07:40:24.888Z,10.80
2023-03-06T07:43:09.215Z,10.78
2023-03-06T07:45:57.829Z,10.77
2023-03-06T07:48:26.309Z,10.75
2023-03-06T07:51:00.263Z,10.77
2023-03-06T07:53:29.258Z,10.75
2023-03-06T07:55:57.892Z,10.76
2023-03-06T07:58:28.307Z,10.77
2023-03-06T08:00:56.667Z,10.75
2023-03-06T08:03:25.134Z,10.75
2023-03-06T08:05:53.834Z,10.76
2023-03-06T08:08:22.332Z,10.75
2023-03-06T08:10:51.630Z,10.74
2023-03-06T08:13:20.041Z,10.71
2023-03-06T08:15:50.748Z,10.72
2023-03-06T08:18:19.357Z,10.73
2023-03-06T08:20:47.737Z,10.74
2023-03-06T08:23:16.138Z,10.77
2023-03-06T08:25:44.394Z,10.77
2023-03-06T08:28:12.811Z,10.78
2023-03-06T08:30:41.439Z,10.79
2023-03-06T08:33:11.504Z,10.80
2023-03-06T08:35:39.977Z,10.80
2023-03-06T08:38:08.362Z,10.81
2023-03-06T08:40:36.729Z,10.82
2023-03-06T08:43:05.172Z,10.81
2023-03-06T08:45:33.538Z,10.84
2023-03-06T08:48:01.877Z,10.86
2023-03-06T08:50:31.795Z,10.86
2023-03-06T08:53:00.216Z,10.86
2023-03-06T08:55:29.155Z,10.84
2023-03-06T08:57:58.558Z,10.83
2023-03-06T09:00:27.499Z,10.84
2023-03-06T09:02:55.818Z,10.85
2023-03-06T09:05:24.499Z,10.85
2023-03-06T09:07:54.270Z,10.86
2023-03-06T09:10:25.745Z,10.83
2023-03-06T09:12:55.621Z,10.80
2023-03-06T09:15:25.021Z,10.80
2023-03-06T09:17:54.374Z,10.75
2023-03-06T09:20:23.209Z,10.73
2023-03-06T09:22:52.994Z,10.74
2023-03-06T09:25:23.293Z,10.74
2023-03-06T09:28:08.641Z,10.76
2023-03-06T09:30:41.222Z,10.78
2023-03-06T09:33:09.696Z,10.80
2023-03-06T09:35:51.816Z,10.82
2023-03-06T09:38:24.874Z,10.80
2023-03-06T09:43:39.225Z,10.78
2023-03-06T09:46:19.337Z,10.80
2023-03-06T09:49:02.711Z,10.82
2023-03-06T09:51:45.724Z,10.83
2023-03-06T09:54:17.128Z,10.84
2023-03-06T09:56:50.695Z,10.86
2023-03-06T09:59:22.190Z,10.84
2023-03-06T10:02:00.099Z,10.84
2023-03-06T10:04:40.323Z,10.84
2023-03-06T10:07:16.136Z,10.82
2023-03-06T10:09:52.507Z,10.83
2023-03-06T10:12:28.542Z,10.82
2023-03-06T10:15:18.091Z,10.83
2023-03-06T10:17:47.237Z,10.84
2023-03-06T10:20:22.766Z,10.87
2023-03-06T10:23:24.801Z,10.88
2023-03-06T10:26:02.904Z,10.88
2023-03-06T10:28:36.483Z,10.90
2023-03-06T10:31:12.195Z,10.90
2023-03-06T10:33:55.322Z,10.90
2023-03-06T10:36:28.055Z,10.92
2023-03-06T10:38:58.781Z,10.93
2023-03-06T10:41:30.555Z,10.93
2023-03-06T10:44:22.072Z,10.93
2023-03-06T10:46:53.418Z,10.92
2023-03-06T10:49:35.148Z,10.90
2023-03-06T10:52:07.871Z,10.90
2023-03-06T10:54:39.103Z,10.90
2023-03-06T10:57:27.019Z,10.89
2023-03-06T10:59:57.511Z,10.89
2023-03-06T11:02:32.156Z,10.89
2023-03-06T11:05:03.493Z,10.92
2023-03-06T11:07:33.799Z,10.91
2023-03-06T11:10:08.761Z,10.93
2023-03-06T11:12:40.049Z,10.94
2023-03-06T11:15:22.377Z,10.93
2023-03-06T11:17:56.561Z,10.90
2023-03-06T11:20:41.272Z,10.86
2023-03-06T11:23:20.582Z,10.83
2023-03-06T11:25:54.829Z,10.85
2023-03-06T11:28:30.131Z,10.85
2023-03-06T11:31:05.129Z,10.86
2023-03-06T11:33:41.200Z,10.87
2023-03-06T11:36:17.352Z,10.89
2023-03-06T11:38:50.752Z,10.94
2023-03-06T11:41:31.706Z,11.01
2023-03-06T11:44:09.266Z,11.07
2023-03-06T11:46:42.104Z,11.12
2023-03-06T11:49:25.284Z,11.16
2023-03-06T11:51:57.514Z,11.17
2023-03-06T11:54:26.112Z,11.20
2023-03-06T11:56:59.882Z,11.23
2023-03-06T12:00:11.311Z,11.27
2023-03-06T12:03:02.624Z,11.27
2023-03-06T12:05:43.913Z,11.30
2023-03-06T12:08:30.070Z,11.27
2023-03-06T12:11:06.449Z,11.24
2023-03-06T12:14:05.266Z,11.21
2023-03-06T12:16:48.723Z,11.22
2023-03-06T12:19:43.700Z,11.24
2023-03-06T12:22:37.093Z,11.25
2023-03-06T12:25:25.757Z,11.27
2023-03-06T12:28:13.710Z,11.29
2023-03-06T12:31:14.284Z,11.33
2023-03-06T12:33:57.235Z,11.37
2023-03-06T12:36:45.846Z,11.41
2023-03-06T12:39:35.719Z,11.38
2023-03-06T12:42:23.570Z,11.42
2023-03-06T12:45:25.099Z,11.43
2023-03-06T12:47:57.445Z,11.45
2023-03-06T12:50:30.433Z,11.50
2023-03-06T12:53:04.025Z,11.53
2023-03-06T12:55:41.184Z,11.57
2023-03-06T12:58:36.304Z,11.61
2023-03-06T13:01:10.072Z,11.64
2023-03-06T13:04:00.848Z,11.67
2023-03-06T13:06:54.125Z,11.75
2023-03-06T13:09:32.818Z,11.80
2023-03-06T13:12:27.450Z,11.84
2023-03-06T13:15:00.649Z,11.84
2023-03-06T13:17:36.923Z,11.86
2023-03-06T13:20:38.659Z,11.85
2023-03-06T13:23:49.487Z,11.82
2023-03-06T13:26:55.657Z,11.84
2023-03-06T13:29:54.032Z,11.85
2023-03-06T13:32:35.572Z,11.86
2023-03-06T13:35:52.756Z,11.89
2023-03-06T13:38:57.290Z,11.90
2023-03-06T13:41:45.002Z,11.87
2023-03-06T13:44:43.459Z,11.86
2023-03-06T13:48:15.838Z,11.84
2023-03-06T13:50:42.919Z,11.85
2023-03-06T13:54:17.367Z,11.89
2023-03-06T13:57:33.266Z,11.89
2023-03-06T14:00:58.172Z,11.88
2023-03-06T14:04:25.031Z,11.89
2023-03-06T14:07:13.474Z,11.90
2023-03-06T14:09:45.521Z,11.95
2023-03-06T14:12:24.043Z,11.97
2023-03-06T14:14:57.369Z,11.98
2023-03-06T14:17:31.462Z,12.04
2023-03-06T14:20:06.779Z,12.08
2023-03-06T14:22:35.142Z,12.10
2023-03-06T14:25:14.834Z,12.15
2023-03-06T14:27:49.435Z,12.19
2023-03-06T14:30:22.248Z,12.22
2023-03-06T14:32:55.200Z,12.27
2023-03-06T14:35:29.110Z,12.29
2023-03-06T14:38:01.834Z,12.32
2023-03-06T14:40:35.135Z,12.33
2023-03-06T14:43:29.142Z,12.38
2023-03-06T14:45:59.692Z,12.37
2023-03-06T14:48:40.741Z,12.39
2023-03-06T14:51:17.540Z,12.40
2023-03-06T14:53:49.111Z,12.41
2023-03-06T14:56:21.682Z,12.44
2023-03-06T14:59:00.389Z,12.46
2023-03-06T15:01:38.496Z,12.48
2023-03-06T15:04:18.119Z,12.50
2023-03-06T15:06:46.894Z,12.50
2023-03-06T15:09:20.548Z,12.53
2023-03-06T15:11:57.967Z,12.55
2023-03-06T15:14:50.479Z,12.54
2023-03-06T15:17:26.207Z,12.53
2023-03-06T15:19:57.135Z,12.53
2023-03-06T15:22:38.251Z,12.55
2023-03-06T15:25:23.298Z,12.54
2023-03-06T15:27:54.676Z,12.54
2023-03-06T15:30:28.934Z,12.55
2023-03-06T15:33:26.098Z,12.54
2023-03-06T15:35:57.529Z,12.51
2023-03-06T15:38:33.941Z,12.53
2023-03-06T15:41:04.752Z,12.52
2023-03-06T15:43:37.881Z,12.52
2023-03-06T15:46:09.125Z,12.50
2023-03-06T15:48:37.489Z,12.51
2023-03-06T15:51:06.859Z,12.51
2023-03-06T15:53:35.264Z,12.50
2023-03-06T15:56:03.697Z,12.50
2023-03-06T15:58:35.159Z,12.50
2023-03-06T16:01:03.722Z,12.46
2023-03-06T16:03:33.805Z,12.45
2023-03-06T16:06:02.510Z,12.42
2023-03-06T16:08:31.225Z,12.38
2023-03-06T16:10:59.699Z,12.37
2023-03-06T16:13:29.600Z,12.32
2023-03-06T16:15:58.012Z,12.30
2023-03-06T16:18:26.776Z,12.28
2023-03-06T16:20:56.524Z,12.25
2023-03-06T16:23:25.121Z,12.23
2023-03-06T16:25:53.527Z,12.21
2023-03-06T16:28:22.626Z,12.19
2023-03-06T16:30:50.988Z,12.19
2023-03-06T16:33:19.323Z,12.18
2023-03-06T16:35:49.937Z,12.19
2023-03-06T16:38:19.801Z,12.16
2023-03-06T16:40:48.264Z,12.15
2023-03-06T16:43:16.718Z,12.14
2023-03-06T16:45:45.641Z,12.13
2023-03-06T16:48:18.166Z,12.14
2023-03-06T16:50:46.898Z,12.12
2023-03-06T16:53:16.139Z,12.13
2023-03-06T16:55:46.882Z,12.13
2023-03-06T16:58:15.305Z,12.12
2023-03-06T17:00:43.871Z,12.11
2023-03-06T17:03:12.460Z,12.10
2023-03-06T17:05:43.041Z,12.09
2023-03-06T17:08:12.588Z,12.07
2023-03-06T17:10:43.148Z,12.07
2023-03-06T17:13:14.081Z,12.08
2023-03-06T17:15:42.692Z,12.07
2023-03-06T17:18:11.441Z,12.07
2023-03-06T17:20:40.695Z,12.07
2023-03-06T17:23:09.340Z,12.07
2023-03-06T17:25:38.416Z,12.07
2023-03-06T17:28:06.929Z,12.06
2023-03-06T17:30:36.768Z,12.05
2023-03-06T17:33:05.296Z,12.03
2023-03-06T17:35:36.483Z,12.03
2023-03-06T17:38:04.862Z,12.02
2023-03-06T17:40:35.585Z,12.02
2023-03-06T17:43:04.179Z,12.00
2023-03-06T17:45:34.231Z,12.02
2023-03-06T17:48:04.182Z,12.01
2023-03-06T17:50:32.562Z,12.02
2023-03-06T17:53:00.905Z,12.00
2023-03-06T17:55:29.921Z,12.00
2023-03-06T17:57:58.559Z,12.00
2023-03-06T18:00:27.320Z,11.99
2023-03-06T18:02:55.924Z,12.00
2023-03-06T18:05:26.348Z,11.98
2023-03-06T18:07:55.014Z,11.99
2023-03-06T18:10:23.862Z,11.98
2023-03-06T18:12:52.433Z,11.99
2023-03-06T18:15:21.290Z,11.99
2023-03-06T18:17:50.148Z,11.98
2023-03-06T18:20:18.928Z,11.98
2023-03-06T18:22:48.781Z,11.97
2023-03-06T18:25:17.410Z,11.97
2023-03-06T18:27:46.735Z,11.97
2023-03-06T18:30:16.167Z,11.97
2023-03-06T18:32:44.674Z,11.96
2023-03-06T18:35:13.031Z,11.96
2023-03-06T18:37:41.538Z,11.96
2023-03-06T18:40:13.696Z,11.97
2023-03-06T18:42:42.158Z,11.97
2023-03-06T18:45:12.715Z,11.97
2023-03-06T18:47:41.592Z,11.96
2023-03-06T18:50:16.415Z,11.96
2023-03-06T18:52:45.402Z,11.94
2023-03-06T18:55:15.634Z,11.95
2023-03-06T18:57:44.008Z,11.93
2023-03-06T19:00:13.788Z,11.93
2023-03-06T19:02:42.247Z,11.93
2023-03-06T19:05:11.063Z,11.92
2023-03-06T19:07:40.260Z,11.92
2023-03-06T19:10:10.357Z,11.91
2023-03-06T19:12:40.222Z,11.90
2023-03-06T19:15:10.232Z,11.87
2023-03-06T19:17:38.737Z,11.84
2023-03-06T19:20:08.708Z,11.82
2023-03-06T19:22:37.294Z,11.82
2023-03-06T19:25:07.756Z,11.81
2023-03-06T19:27:37.912Z,11.79
2023-03-06T19:30:09.914Z,11.78
2023-03-06T19:32:38.878Z,11.76
2023-03-06T19:35:10.683Z,11.76
2023-03-06T19:37:39.393Z,11.73
2023-03-06T19:40:10.133Z,11.71
2023-03-06T19:42:38.738Z,11.70
2023-03-06T19:45:10.529Z,11.71
2023-03-06T19:47:39.106Z,11.69
2023-03-06T19:50:09.449Z,11.69
2023-03-06T19:52:39.005Z,11.68
2023-03-06T19:55:09.625Z,11.66
2023-03-06T19:57:38.166Z,11.64
2023-03-06T20:00:11.000Z,11.62
2023-03-06T20:02:42.253Z,11.61
2023-03-06T20:05:11.119Z,11.62
2023-03-06T20:07:39.576Z,11.60
2023-03-06T20:10:08.951Z,11.57
2023-03-06T20:12:37.666Z,11.56
2023-03-06T20:15:12.073Z,11.58
2023-03-06T20:17:41.504Z,11.57
2023-03-06T20:20:12.436Z,11.58
2023-03-06T20:22:40.942Z,11.56
2023-03-06T20:25:09.808Z,11.56
2023-03-06T20:27:38.311Z,11.54
2023-03-06T20:30:13.114Z,11.53
2023-03-06T20:32:41.651Z,11.49
2023-03-06T20:35:10.558Z,11.49
2023-03-06T20:37:40.802Z,11.49
2023-03-06T20:40:11.046Z,11.49
2023-03-06T20:42:39.505Z,11.48
2023-03-06T20:45:10.944Z,11.49
2023-03-06T20:47:39.346Z,11.48
2023-03-06T20:50:08.949Z,11.48
2023-03-06T20:52:37.660Z,11.47
2023-03-06T20:55:07.649Z,11.47
2023-03-06T20:57:36.117Z,11.46
2023-03-06T21:00:06.500Z,11.44
2023-03-06T21:02:36.603Z,11.43
2023-03-06T21:05:05.794Z,11.42
2023-03-06T21:07:34.273Z,11.41
2023-03-06T21:10:03.212Z,11.42
2023-03-06T21:12:31.682Z,11.40
2023-03-06T21:15:00.376Z,11.39
2023-03-06T21:17:30.379Z,11.36
2023-03-06T21:20:00.568Z,11.37
2023-03-06T21:22:30.251Z,11.36
2023-03-06T21:24:58.872Z,11.34
2023-03-06T21:27:27.214Z,11.33
2023-03-06T21:29:55.604Z,11.32
2023-03-06T21:32:24.092Z,11.32
2023-03-06T21:34:52.686Z,11.30
2023-03-06T21:37:22.565Z,11.29
2023-03-06T21:39:51.074Z,11.29
2023-03-06T21:42:19.513Z,11.26
2023-03-06T21:44:48.500Z,11.26
2023-03-06T21:47:17.147Z,11.24
2023-03-06T21:49:45.583Z,11.26
2023-03-06T21:52:13.953Z,11.24
2023-03-06T21:54:43.863Z,11.23
2023-03-06T21:57:12.297Z,11.24
2023-03-06T21:59:40.939Z,11.23
2023-03-06T22:02:11.376Z,11.21
2023-03-06T22:04:39.866Z,11.20
2023-03-06T22:07:08.427Z,11.19
2023-03-06T22:09:37.357Z,11.17
2023-03-06T22:12:08.214Z,11.17
2023-03-06T22:14:36.633Z,11.14
2023-03-06T22:17:05.690Z,11.14
2023-03-06T22:19:34.230Z,11.13
2023-03-06T22:22:03.728Z,11.11
2023-03-06T22:24:33.495Z,11.09
2023-03-06T22:27:01.887Z,11.07
2023-03-06T22:29:31.571Z,11.06
2023-03-06T22:32:00.001Z,11.05
2023-03-06T22:34:28.587Z,11.06
2023-03-06T22:36:57.641Z,11.05
2023-03-06T22:39:26.038Z,11.05
2023-03-06T22:41:56.798Z,11.06
2023-03-06T22:44:25.609Z,11.05
2023-03-06T22:46:56.000Z,11.07
2023-03-06T22:49:24.581Z,11.08
2023-03-06T22:51:52.890Z,11.08
2023-03-06T22:54:21.271Z,11.09
2023-03-06T22:56:49.725Z,11.09
2023-03-06T22:59:18.164Z,11.10
2023-03-06T23:01:46.636Z,11.08
2023-03-06T23:04:16.440Z,11.08
2023-03-06T23:06:46.703Z,11.09
2023-03-06T23:09:18.245Z,11.11
2023-03-06T23:12:06.150Z,11.06
2023-03-06T23:14:53.651Z,11.05
2023-03-06T23:17:40.876Z,11.01
2023-03-06T23:20:32.224Z,10.99
2023-03-06T23:23:19.429Z,10.96
2023-03-06T23:25:48.877Z,10.97
2023-03-06T23:28:17.488Z,10.99
2023-03-06T23:30:46.279Z,10.98
2023-03-06T23:33:14.688Z,10.98
2023-03-06T23:35:45.390Z,10.98
2023-03-06T23:38:13.962Z,10.96
2023-03-06T23:40:42.917Z,10.95
2023-03-06T23:43:11.335Z,10.95
2023-03-06T23:45:39.817Z,10.96
2023-03-06T23:48:08.573Z,10.96
2023-03-06T23:50:41.160Z,10.97
2023-03-06T23:53:11.012Z,10.96
2023-03-06T23:55:42.295Z,10.96
2023-03-06T23:58:10.836Z,10.94
